Terminal Aerodrome Forecast
Issued by NWS

Home | Current Version | Previous Version | Text Only | Print | Product List | Glossary On
Versions: 1 2 3 4 5 6 7 8 9 10 11 12 13 14 15 16 17 18 19 20 21 22 23 24 25 26 27 28 29 30 31 32
000
FTUS44 KFWD 050804 AAA
TAFDAL
TAF AMD
KDAL 050804Z 0508/0606 35004KT P6SM SCT022 OVC090
      TEMPO 0508/0511 BKN021
     FM051100 02005KT 5SM BR VCSH OVC020
     FM051500 06007KT 3SM -RA BR OVC007
     FM052300 09005KT 2SM -DZ BR OVC003
     FM060300 13004KT 1SM BR OVC002=

USA.gov is the U.S. government's official web portal to all federal, state and local government web resources and services.